sensor_id;sensor_type;location;lat;lon;timestamp;pressure;altitude;pressure_sealevel;temperature
74043;BMP280;62384;53.600;10.040;2023-09-08T03:36:58;73009.91;;;17.86
74043;BMP280;62384;53.600;10.040;2023-09-08T03:39:24;73036.75;;;17.76
74043;BMP280;62384;53.600;10.040;2023-09-08T03:41:49;72746.28;;;17.81
74043;BMP280;62384;53.600;10.040;2023-09-08T03:44:14;72696.81;;;17.80
74043;BMP280;62384;53.600;10.040;2023-09-08T03:46:39;72907.16;;;17.85
74043;BMP280;62384;53.600;10.040;2023-09-08T03:49:05;72711.84;;;17.76
74043;BMP280;62384;53.600;10.040;2023-09-08T03:51:31;72821.56;;;17.76
74043;BMP280;62384;53.600;10.040;2023-09-08T03:53:56;72784.47;;;17.76
74043;BMP280;62384;53.600;10.040;2023-09-08T03:56:22;72715.63;;;17.72
74043;BMP280;62384;53.600;10.040;2023-09-08T03:58:47;72817.81;;;17.77
74043;BMP280;62384;53.600;10.040;2023-09-08T04:01:13;72859.81;;;17.84
74043;BMP280;62384;53.600;10.040;2023-09-08T04:03:38;72964.25;;;17.94
74043;BMP280;62384;53.600;10.040;2023-09-08T04:06:04;72794.72;;;17.78
74043;BMP280;62384;53.600;10.040;2023-09-08T04:08:29;72619.88;;;17.71
74043;BMP280;62384;53.600;10.040;2023-09-08T04:10:54;72554.28;;;17.65
74043;BMP280;62384;53.600;10.040;2023-09-08T04:13:19;72763.50;;;17.77
74043;BMP280;62384;53.600;10.040;2023-09-08T04:15:45;72624.72;;;17.73
74043;BMP280;62384;53.600;10.040;2023-09-08T04:18:10;72411.22;;;17.62
74043;BMP280;62384;53.600;10.040;2023-09-08T04:20:35;72352.63;;;17.62
74043;BMP280;62384;53.600;10.040;2023-09-08T04:23:01;72337.56;;;17.61
74043;BMP280;62384;53.600;10.040;2023-09-08T04:25:26;72233.78;;;17.62
74043;BMP280;62384;53.600;10.040;2023-09-08T04:27:51;72285.91;;;17.68
74043;BMP280;62384;53.600;10.040;2023-09-08T04:30:16;72335.41;;;17.61
74043;BMP280;62384;53.600;10.040;2023-09-08T04:32:42;72167.66;;;17.58
74043;BMP280;62384;53.600;10.040;2023-09-08T04:35:09;72135.41;;;17.58
74043;BMP280;62384;53.600;10.040;2023-09-08T04:37:34;72024.75;;;17.47
74043;BMP280;62384;53.600;10.040;2023-09-08T04:39:59;72020.97;;;17.51
74043;BMP280;62384;53.600;10.040;2023-09-08T04:42:24;71775.34;;;17.48
74043;BMP280;62384;53.600;10.040;2023-09-08T04:44:50;71742.63;;;17.42
74043;BMP280;62384;53.600;10.040;2023-09-08T04:47:16;71521.16;;;17.46
74043;BMP280;62384;53.600;10.040;2023-09-08T04:49:41;71376.56;;;17.47
74043;BMP280;62384;53.600;10.040;2023-09-08T04:52:07;71528.53;;;17.56
74043;BMP280;62384;53.600;10.040;2023-09-08T04:54:32;71766.66;;;17.55
74043;BMP280;62384;53.600;10.040;2023-09-08T04:56:57;72074.63;;;17.61
74043;BMP280;62384;53.600;10.040;2023-09-08T04:59:22;71935.41;;;17.59
74043;BMP280;62384;53.600;10.040;2023-09-08T05:01:49;71798.38;;;17.54
74043;BMP280;62384;53.600;10.040;2023-09-08T05:04:17;71921.44;;;17.59
74043;BMP280;62384;53.600;10.040;2023-09-08T05:06:43;71702.69;;;17.53
74043;BMP280;62384;53.600;10.040;2023-09-08T05:09:08;71581.25;;;17.52
74043;BMP280;62384;53.600;10.040;2023-09-08T05:11:33;71458.66;;;17.56
74043;BMP280;62384;53.600;10.040;2023-09-08T05:13:59;71583.94;;;17.52
74043;BMP280;62384;53.600;10.040;2023-09-08T05:16:24;71365.69;;;17.54
74043;BMP280;62384;53.600;10.040;2023-09-08T05:19:05;71287.22;;;17.54
74043;BMP280;62384;53.600;10.040;2023-09-08T05:21:31;71226.56;;;17.50
74043;BMP280;62384;53.600;10.040;2023-09-08T05:23:57;71917.44;;;17.78
74043;BMP280;62384;53.600;10.040;2023-09-08T05:26:22;72304.63;;;17.85
74043;BMP280;62384;53.600;10.040;2023-09-08T05:28:48;72277.25;;;17.77
74043;BMP280;62384;53.600;10.040;2023-09-08T05:31:13;72105.09;;;17.82
74043;BMP280;62384;53.600;10.040;2023-09-08T05:33:38;71734.19;;;17.70
74043;BMP280;62384;53.600;10.040;2023-09-08T05:36:03;72237.38;;;17.88
74043;BMP280;62384;53.600;10.040;2023-09-08T05:38:29;72050.19;;;17.86
74043;BMP280;62384;53.600;10.040;2023-09-08T05:40:54;72256.28;;;17.78
74043;BMP280;62384;53.600;10.040;2023-09-08T05:43:20;72356.28;;;17.83
74043;BMP280;62384;53.600;10.040;2023-09-08T05:45:46;72500.97;;;17.98
74043;BMP280;62384;53.600;10.040;2023-09-08T05:48:11;72479.44;;;17.96
74043;BMP280;62384;53.600;10.040;2023-09-08T05:50:38;72398.16;;;18.05
74043;BMP280;62384;53.600;10.040;2023-09-08T05:53:03;72526.75;;;18.00
74043;BMP280;62384;53.600;10.040;2023-09-08T05:55:29;72679.59;;;18.04
74043;BMP280;62384;53.600;10.040;2023-09-08T05:57:59;72734.47;;;18.10
74043;BMP280;62384;53.600;10.040;2023-09-08T06:00:27;72684.94;;;18.09
74043;BMP280;62384;53.600;10.040;2023-09-08T06:02:53;72904.59;;;18.21
74043;BMP280;62384;53.600;10.040;2023-09-08T06:05:18;72884.66;;;18.20
74043;BMP280;62384;53.600;10.040;2023-09-08T06:07:43;73035.47;;;18.30
74043;BMP280;62384;53.600;10.040;2023-09-08T06:10:09;73134.56;;;18.37
74043;BMP280;62384;53.600;10.040;2023-09-08T06:12:34;73126.56;;;18.44
74043;BMP280;62384;53.600;10.040;2023-09-08T06:15:02;73210.50;;;18.37
74043;BMP280;62384;53.600;10.040;2023-09-08T06:17:28;73222.91;;;18.36
74043;BMP280;62384;53.600;10.040;2023-09-08T06:19:53;73205.06;;;18.32
74043;BMP280;62384;53.600;10.040;2023-09-08T06:22:18;73137.34;;;18.52
74043;BMP280;62384;53.600;10.040;2023-09-08T06:24:44;73099.69;;;18.57
74043;BMP280;62384;53.600;10.040;2023-09-08T06:27:09;73171.38;;;18.66
74043;BMP280;62384;53.600;10.040;2023-09-08T06:29:36;73488.81;;;18.73
74043;BMP280;62384;53.600;10.040;2023-09-08T06:32:01;73559.38;;;18.71
74043;BMP280;62384;53.600;10.040;2023-09-08T06:34:28;73418.28;;;18.77
74043;BMP280;62384;53.600;10.040;2023-09-08T06:36:53;73480.25;;;18.77
74043;BMP280;62384;53.600;10.040;2023-09-08T06:39:18;73773.16;;;18.94
74043;BMP280;62384;53.600;10.040;2023-09-08T06:41:44;73817.41;;;18.98
74043;BMP280;62384;53.600;10.040;2023-09-08T06:44:09;73796.41;;;19.01
74043;BMP280;62384;53.600;10.040;2023-09-08T06:46:35;73744.94;;;19.20
74043;BMP280;62384;53.600;10.040;2023-09-08T06:49:01;74109.56;;;19.21
74043;BMP280;62384;53.600;10.040;2023-09-08T06:51:26;74144.72;;;19.26
74043;BMP280;62384;53.600;10.040;2023-09-08T06:53:55;74352.63;;;19.36
74043;BMP280;62384;53.600;10.040;2023-09-08T06:56:21;74274.56;;;19.43
74043;BMP280;62384;53.600;10.040;2023-09-08T06:58:47;74300.13;;;19.52
74043;BMP280;62384;53.600;10.040;2023-09-08T07:01:12;74387.53;;;19.50
74043;BMP280;62384;53.600;10.040;2023-09-08T07:03:37;74501.34;;;19.70
74043;BMP280;62384;53.600;10.040;2023-09-08T07:06:02;74612.72;;;19.76
74043;BMP280;62384;53.600;10.040;2023-09-08T07:08:28;74762.41;;;19.79
74043;BMP280;62384;53.600;10.040;2023-09-08T07:10:54;74896.31;;;19.78
74043;BMP280;62384;53.600;10.040;2023-09-08T07:13:19;74853.06;;;19.96
74043;BMP280;62384;53.600;10.040;2023-09-08T07:15:45;74903.72;;;20.10
74043;BMP280;62384;53.600;10.040;2023-09-08T07:18:11;74952.53;;;20.17
74043;BMP280;62384;53.600;10.040;2023-09-08T07:20:36;75065.00;;;20.19
74043;BMP280;62384;53.600;10.040;2023-09-08T07:23:02;75031.22;;;20.27
74043;BMP280;62384;53.600;10.040;2023-09-08T07:25:27;75091.00;;;20.37
74043;BMP280;62384;53.600;10.040;2023-09-08T07:27:52;75198.03;;;20.53
74043;BMP280;62384;53.600;10.040;2023-09-08T07:30:19;75340.03;;;20.62
74043;BMP280;62384;53.600;10.040;2023-09-08T07:32:44;75376.50;;;20.85
74043;BMP280;62384;53.600;10.040;2023-09-08T07:35:10;75584.75;;;20.83
74043;BMP280;62384;53.600;10.040;2023-09-08T07:37:40;75661.16;;;20.86
74043;BMP280;62384;53.600;10.040;2023-09-08T07:40:07;75647.38;;;21.07
74043;BMP280;62384;53.600;10.040;2023-09-08T07:42:32;75691.69;;;21.06
74043;BMP280;62384;53.600;10.040;2023-09-08T07:44:58;75795.97;;;21.14
74043;BMP280;62384;53.600;10.040;2023-09-08T07:47:23;75931.03;;;21.33
74043;BMP280;62384;53.600;10.040;2023-09-08T07:49:48;76133.22;;;21.49
74043;BMP280;62384;53.600;10.040;2023-09-08T07:52:14;76160.78;;;21.47
74043;BMP280;62384;53.600;10.040;2023-09-08T07:54:39;76183.13;;;21.62
74043;BMP280;62384;53.600;10.040;2023-09-08T07:57:04;76308.91;;;21.75
74043;BMP280;62384;53.600;10.040;2023-09-08T07:59:29;76330.03;;;21.87
74043;BMP280;62384;53.600;10.040;2023-09-08T08:01:55;76470.63;;;22.01
74043;BMP280;62384;53.600;10.040;2023-09-08T08:04:20;76489.94;;;22.09
74043;BMP280;62384;53.600;10.040;2023-09-08T08:06:46;76620.88;;;22.24
74043;BMP280;62384;53.600;10.040;2023-09-08T08:09:12;76757.03;;;22.34
74043;BMP280;62384;53.600;10.040;2023-09-08T08:11:37;76814.16;;;22.27
74043;BMP280;62384;53.600;10.040;2023-09-08T08:14:03;76866.34;;;22.49
74043;BMP280;62384;53.600;10.040;2023-09-08T08:16:28;76982.56;;;22.70
74043;BMP280;62384;53.600;10.040;2023-09-08T08:18:54;77055.31;;;22.60
74043;BMP280;62384;53.600;10.040;2023-09-08T08:21:19;77217.75;;;22.71
74043;BMP280;62384;53.600;10.040;2023-09-08T08:23:47;77242.06;;;22.97
74043;BMP280;62384;53.600;10.040;2023-09-08T08:26:12;77322.75;;;23.11
74043;BMP280;62384;53.600;10.040;2023-09-08T08:28:37;77417.13;;;23.27
74043;BMP280;62384;53.600;10.040;2023-09-08T08:31:03;77552.78;;;23.32
74043;BMP280;62384;53.600;10.040;2023-09-08T08:33:29;77527.38;;;23.52
74043;BMP280;62384;53.600;10.040;2023-09-08T08:35:54;77630.97;;;23.48
74043;BMP280;62384;53.600;10.040;2023-09-08T08:38:20;77710.56;;;23.51
74043;BMP280;62384;53.600;10.040;2023-09-08T08:40:46;77749.78;;;23.78
74043;BMP280;62384;53.600;10.040;2023-09-08T08:43:11;77796.25;;;23.90
74043;BMP280;62384;53.600;10.040;2023-09-08T08:45:37;77802.53;;;23.86
74043;BMP280;62384;53.600;10.040;2023-09-08T08:48:04;77840.50;;;23.93
74043;BMP280;62384;53.600;10.040;2023-09-08T08:50:31;77944.09;;;24.12
74043;BMP280;62384;53.600;10.040;2023-09-08T08:52:57;77973.81;;;24.26
74043;BMP280;62384;53.600;10.040;2023-09-08T08:55:24;78054.69;;;24.30
74043;BMP280;62384;53.600;10.040;2023-09-08T08:57:50;78073.84;;;24.40
74043;BMP280;62384;53.600;10.040;2023-09-08T09:00:18;78098.00;;;24.51
74043;BMP280;62384;53.600;10.040;2023-09-08T09:02:44;78167.44;;;24.55
74043;BMP280;62384;53.600;10.040;2023-09-08T09:05:11;78172.06;;;24.75
74043;BMP280;62384;53.600;10.040;2023-09-08T09:07:38;78158.13;;;24.87
74043;BMP280;62384;53.600;10.040;2023-09-08T09:10:04;78226.84;;;24.87
74043;BMP280;62384;53.600;10.040;2023-09-08T09:12:30;78254.13;;;25.04
74043;BMP280;62384;53.600;10.040;2023-09-08T09:14:58;78300.47;;;25.20
74043;BMP280;62384;53.600;10.040;2023-09-08T09:17:23;78264.59;;;25.39
74043;BMP280;62384;53.600;10.040;2023-09-08T09:19:49;78280.88;;;25.46
74043;BMP280;62384;53.600;10.040;2023-09-08T09:22:20;78362.81;;;25.56
74043;BMP280;62384;53.600;10.040;2023-09-08T09:24:45;78368.94;;;25.49
74043;BMP280;62384;53.600;10.040;2023-09-08T09:27:12;78373.50;;;25.60
74043;BMP280;62384;53.600;10.040;2023-09-08T09:29:48;78423.03;;;25.75
74043;BMP280;62384;53.600;10.040;2023-09-08T09:32:15;78400.13;;;25.83
74043;BMP280;62384;53.600;10.040;2023-09-08T09:34:48;78415.91;;;25.66
74043;BMP280;62384;53.600;10.040;2023-09-08T09:37:14;78483.78;;;26.01
74043;BMP280;62384;53.600;10.040;2023-09-08T09:39:40;78491.09;;;26.29
74043;BMP280;62384;53.600;10.040;2023-09-08T09:42:06;78536.88;;;26.35
74043;BMP280;62384;53.600;10.040;2023-09-08T09:44:32;78576.22;;;26.76
74043;BMP280;62384;53.600;10.040;2023-09-08T09:46:57;78591.94;;;26.66
74043;BMP280;62384;53.600;10.040;2023-09-08T09:49:23;78679.75;;;27.12
74043;BMP280;62384;53.600;10.040;2023-09-08T09:51:53;78707.25;;;27.47
74043;BMP280;62384;53.600;10.040;2023-09-08T09:54:18;78852.53;;;27.99
74043;BMP280;62384;53.600;10.040;2023-09-08T09:56:49;79067.00;;;29.16
74043;BMP280;62384;53.600;10.040;2023-09-08T09:59:17;79202.88;;;29.69
74043;BMP280;62384;53.600;10.040;2023-09-08T10:01:42;79237.31;;;29.91
74043;BMP280;62384;53.600;10.040;2023-09-08T10:04:08;79251.22;;;29.94
74043;BMP280;62384;53.600;10.040;2023-09-08T10:06:36;79346.78;;;30.34
74043;BMP280;62384;53.600;10.040;2023-09-08T10:09:03;79399.50;;;30.74
74043;BMP280;62384;53.600;10.040;2023-09-08T10:11:45;79436.50;;;31.01
74043;BMP280;62384;53.600;10.040;2023-09-08T10:14:15;79405.94;;;30.80
74043;BMP280;62384;53.600;10.040;2023-09-08T10:16:46;79508.06;;;31.34
74043;BMP280;62384;53.600;10.040;2023-09-08T10:19:14;79480.88;;;31.23
74043;BMP280;62384;53.600;10.040;2023-09-08T10:21:42;79574.50;;;31.72
74043;BMP280;62384;53.600;10.040;2023-09-08T10:24:18;79509.44;;;31.21
74043;BMP280;62384;53.600;10.040;2023-09-08T10:26:53;79536.75;;;31.52
74043;BMP280;62384;53.600;10.040;2023-09-08T10:29:22;79630.84;;;31.99
74043;BMP280;62384;53.600;10.040;2023-09-08T10:31:48;79657.88;;;32.25
74043;BMP280;62384;53.600;10.040;2023-09-08T10:34:14;79578.38;;;31.73
74043;BMP280;62384;53.600;10.040;2023-09-08T10:36:40;79618.75;;;32.18
74043;BMP280;62384;53.600;10.040;2023-09-08T10:39:35;79649.84;;;32.21
74043;BMP280;62384;53.600;10.040;2023-09-08T10:42:20;79776.19;;;33.05
74043;BMP280;62384;53.600;10.040;2023-09-08T10:47:19;79694.53;;;32.38
74043;BMP280;62384;53.600;10.040;2023-09-08T10:49:45;79739.34;;;32.90
74043;BMP280;62384;53.600;10.040;2023-09-08T10:52:12;79737.81;;;32.75
74043;BMP280;62384;53.600;10.040;2023-09-08T10:54:50;79723.75;;;32.63
74043;BMP280;62384;53.600;10.040;2023-09-08T10:57:17;79683.81;;;32.43
74043;BMP280;62384;53.600;10.040;2023-09-08T10:59:57;79635.81;;;32.25
74043;BMP280;62384;53.600;10.040;2023-09-08T11:02:39;79823.34;;;33.34
74043;BMP280;62384;53.600;10.040;2023-09-08T11:05:12;79673.91;;;32.60
74043;BMP280;62384;53.600;10.040;2023-09-08T11:07:39;79775.44;;;33.02
74043;BMP280;62384;53.600;10.040;2023-09-08T11:10:05;79833.13;;;33.75
74043;BMP280;62384;53.600;10.040;2023-09-08T11:12:31;79682.56;;;32.75
74043;BMP280;62384;53.600;10.040;2023-09-08T11:14:58;79548.63;;;32.17
74043;BMP280;62384;53.600;10.040;2023-09-08T11:17:29;79545.81;;;32.33
74043;BMP280;62384;53.600;10.040;2023-09-08T11:19:54;79392.50;;;31.63
74043;BMP280;62384;53.600;10.040;2023-09-08T11:22:22;79247.00;;;31.09
74043;BMP280;62384;53.600;10.040;2023-09-08T11:24:49;79216.38;;;30.94
74043;BMP280;62384;53.600;10.040;2023-09-08T11:27:14;79203.25;;;30.78
74043;BMP280;62384;53.600;10.040;2023-09-08T11:29:40;79147.03;;;30.42
74043;BMP280;62384;53.600;10.040;2023-09-08T11:32:07;79078.31;;;30.16
74043;BMP280;62384;53.600;10.040;2023-09-08T11:34:34;79168.53;;;30.25
74043;BMP280;62384;53.600;10.040;2023-09-08T11:36:59;79110.69;;;30.05
74043;BMP280;62384;53.600;10.040;2023-09-08T11:39:24;79031.28;;;29.58
74043;BMP280;62384;53.600;10.040;2023-09-08T11:41:53;79024.44;;;29.71
74043;BMP280;62384;53.600;10.040;2023-09-08T11:44:18;79075.13;;;30.08
74043;BMP280;62384;53.600;10.040;2023-09-08T11:46:48;78995.16;;;29.60
74043;BMP280;62384;53.600;10.040;2023-09-08T11:49:19;79030.63;;;29.91
74043;BMP280;62384;53.600;10.040;2023-09-08T11:51:44;79070.41;;;29.94
74043;BMP280;62384;53.600;10.040;2023-09-08T11:54:10;78986.94;;;29.60
74043;BMP280;62384;53.600;10.040;2023-09-08T11:56:36;78998.38;;;29.68
74043;BMP280;62384;53.600;10.040;2023-09-08T11:59:02;79053.25;;;29.75
74043;BMP280;62384;53.600;10.040;2023-09-08T12:01:28;79034.41;;;29.73
74043;BMP280;62384;53.600;10.040;2023-09-08T12:03:54;79021.84;;;29.74
74043;BMP280;62384;53.600;10.040;2023-09-08T12:06:24;79074.88;;;29.96
74043;BMP280;62384;53.600;10.040;2023-09-08T12:08:49;79068.00;;;30.09
74043;BMP280;62384;53.600;10.040;2023-09-08T12:11:20;79040.34;;;29.71
74043;BMP280;62384;53.600;10.040;2023-09-08T12:13:45;79034.84;;;29.71
74043;BMP280;62384;53.600;10.040;2023-09-08T12:16:21;79032.09;;;29.71
74043;BMP280;62384;53.600;10.040;2023-09-08T12:18:49;78992.06;;;29.46
74043;BMP280;62384;53.600;10.040;2023-09-08T12:21:16;79024.88;;;29.79
74043;BMP280;62384;53.600;10.040;2023-09-08T12:23:48;79026.16;;;29.73
74043;BMP280;62384;53.600;10.040;2023-09-08T12:26:18;79009.38;;;29.68
74043;BMP280;62384;53.600;10.040;2023-09-08T12:28:44;78989.50;;;29.58
74043;BMP280;62384;53.600;10.040;2023-09-08T12:31:14;78984.72;;;29.51
74043;BMP280;62384;53.600;10.040;2023-09-08T12:33:42;79000.66;;;29.34
74043;BMP280;62384;53.600;10.040;2023-09-08T12:36:12;78961.03;;;29.33
74043;BMP280;62384;53.600;10.040;2023-09-08T12:38:38;78987.31;;;29.49
74043;BMP280;62384;53.600;10.040;2023-09-08T12:41:03;78992.66;;;29.56
74043;BMP280;62384;53.600;10.040;2023-09-08T12:43:29;78976.69;;;29.63
74043;BMP280;62384;53.600;10.040;2023-09-08T12:45:55;78977.81;;;29.55
74043;BMP280;62384;53.600;10.040;2023-09-08T12:48:21;78978.94;;;29.56
74043;BMP280;62384;53.600;10.040;2023-09-08T12:50:47;79020.28;;;29.75
74043;BMP280;62384;53.600;10.040;2023-09-08T12:53:13;79020.00;;;29.79
74043;BMP280;62384;53.600;10.040;2023-09-08T12:55:39;78995.94;;;29.73
74043;BMP280;62384;53.600;10.040;2023-09-08T12:58:04;79004.63;;;29.71
74043;BMP280;62384;53.600;10.040;2023-09-08T13:00:29;78999.13;;;29.71
74043;BMP280;62384;53.600;10.040;2023-09-08T13:02:54;79017.41;;;29.82
74043;BMP280;62384;53.600;10.040;2023-09-08T13:05:20;79010.47;;;29.85
74043;BMP280;62384;53.600;10.040;2023-09-08T13:07:47;79025.19;;;29.74
74043;BMP280;62384;53.600;10.040;2023-09-08T13:10:13;79022.72;;;29.79
74043;BMP280;62384;53.600;10.040;2023-09-08T13:12:38;79029.56;;;29.83
74043;BMP280;62384;53.600;10.040;2023-09-08T13:15:03;79057.50;;;29.90
74043;BMP280;62384;53.600;10.040;2023-09-08T13:17:29;79085.41;;;30.15
74043;BMP280;62384;53.600;10.040;2023-09-08T13:19:59;79047.88;;;30.03
74043;BMP280;62384;53.600;10.040;2023-09-08T13:22:25;79023.47;;;29.82
74043;BMP280;62384;53.600;10.040;2023-09-08T13:24:50;79057.44;;;30.07
74043;BMP280;62384;53.600;10.040;2023-09-08T13:27:15;79029.50;;;29.99
74043;BMP280;62384;53.600;10.040;2023-09-08T13:29:43;79060.72;;;30.24
74043;BMP280;62384;53.600;10.040;2023-09-08T13:32:08;79085.38;;;30.05
74043;BMP280;62384;53.600;10.040;2023-09-08T13:34:34;79042.13;;;30.08
74043;BMP280;62384;53.600;10.040;2023-09-08T13:37:01;79061.19;;;30.05
74043;BMP280;62384;53.600;10.040;2023-09-08T13:39:28;79011.56;;;30.03
74043;BMP280;62384;53.600;10.040;2023-09-08T13:42:01;79052.84;;;30.13
74043;BMP280;62384;53.600;10.040;2023-09-08T13:44:26;79041.53;;;30.08
74043;BMP280;62384;53.600;10.040;2023-09-08T13:46:53;79036.50;;;30.15
74043;BMP280;62384;53.600;10.040;2023-09-08T13:49:21;79051.63;;;30.02
74043;BMP280;62384;53.600;10.040;2023-09-08T13:51:48;79027.69;;;30.15
74043;BMP280;62384;53.600;10.040;2023-09-08T13:54:14;79033.06;;;30.22
74043;BMP280;62384;53.600;10.040;2023-09-08T13:56:40;79031.38;;;30.03
74043;BMP280;62384;53.600;10.040;2023-09-08T13:59:08;79015.97;;;29.85
74043;BMP280;62384;53.600;10.040;2023-09-08T14:01:37;79049.47;;;30.02
74043;BMP280;62384;53.600;10.040;2023-09-08T14:04:03;79009.38;;;30.03
74043;BMP280;62384;53.600;10.040;2023-09-08T14:06:31;79039.78;;;30.06
74043;BMP280;62384;53.600;10.040;2023-09-08T14:08:56;79025.31;;;30.03
74043;BMP280;62384;53.600;10.040;2023-09-08T14:11:22;79042.97;;;30.04
74043;BMP280;62384;53.600;10.040;2023-09-08T14:13:48;79012.56;;;30.01
74043;BMP280;62384;53.600;10.040;2023-09-08T14:16:13;79009.25;;;30.01
74043;BMP280;62384;53.600;10.040;2023-09-08T14:18:39;78999.84;;;30.00
74043;BMP280;62384;53.600;10.040;2023-09-08T14:21:05;79033.25;;;29.98
74043;BMP280;62384;53.600;10.040;2023-09-08T14:23:31;78987.81;;;29.92
74043;BMP280;62384;53.600;10.040;2023-09-08T14:25:58;79029.03;;;29.92
74043;BMP280;62384;53.600;10.040;2023-09-08T14:28:24;78979.69;;;29.85
74043;BMP280;62384;53.600;10.040;2023-09-08T14:30:49;79039.38;;;29.82
74043;BMP280;62384;53.600;10.040;2023-09-08T14:33:16;79012.78;;;29.87
74043;BMP280;62384;53.600;10.040;2023-09-08T14:35:42;79012.47;;;29.82
74043;BMP280;62384;53.600;10.040;2023-09-08T14:38:16;78981.06;;;29.72
74043;BMP280;62384;53.600;10.040;2023-09-08T14:40:41;78982.41;;;29.85
74043;BMP280;62384;53.600;10.040;2023-09-08T14:43:07;79016.56;;;29.86
74043;BMP280;62384;53.600;10.040;2023-09-08T14:45:32;79002.22;;;29.85
74043;BMP280;62384;53.600;10.040;2023-09-08T14:47:58;79000.59;;;29.77
74043;BMP280;62384;53.600;10.040;2023-09-08T14:50:23;79007.31;;;29.87
74043;BMP280;62384;53.600;10.040;2023-09-08T14:52:48;78977.38;;;29.92
74043;BMP280;62384;53.600;10.040;2023-09-08T14:55:13;79068.44;;;30.07
74043;BMP280;62384;53.600;10.040;2023-09-08T14:57:39;79085.34;;;30.31
74043;BMP280;62384;53.600;10.040;2023-09-08T15:00:04;79078.56;;;30.37
74043;BMP280;62384;53.600;10.040;2023-09-08T15:02:33;79056.72;;;30.40
74043;BMP280;62384;53.600;10.040;2023-09-08T15:04:59;79066.22;;;30.24
74043;BMP280;62384;53.600;10.040;2023-09-08T15:07:24;79045.72;;;30.04
74043;BMP280;62384;53.600;10.040;2023-09-08T15:09:49;79008.50;;;29.98
74043;BMP280;62384;53.600;10.040;2023-09-08T15:12:16;79019.50;;;29.98
74043;BMP280;62384;53.600;10.040;2023-09-08T15:14:42;78975.06;;;29.90
74043;BMP280;62384;53.600;10.040;2023-09-08T15:17:07;78998.47;;;29.87
74043;BMP280;62384;53.600;10.040;2023-09-08T15:19:33;79003.09;;;29.81
74043;BMP280;62384;53.600;10.040;2023-09-08T15:21:58;78987.59;;;29.80
74043;BMP280;62384;53.600;10.040;2023-09-08T15:24:24;78974.28;;;29.78
74043;BMP280;62384;53.600;10.040;2023-09-08T15:26:49;78955.16;;;29.71
74043;BMP280;62384;53.600;10.040;2023-09-08T15:29:15;78957.88;;;29.61
74043;BMP280;62384;53.600;10.040;2023-09-08T15:31:41;78944.94;;;29.48
74043;BMP280;62384;53.600;10.040;2023-09-08T15:34:06;78925.53;;;29.36
74043;BMP280;62384;53.600;10.040;2023-09-08T15:36:33;78985.75;;;29.59
74043;BMP280;62384;53.600;10.040;2023-09-08T15:38:58;78956.53;;;29.58
74043;BMP280;62384;53.600;10.040;2023-09-08T15:41:25;78948.44;;;29.51
74043;BMP280;62384;53.600;10.040;2023-09-08T15:43:51;78977.47;;;29.50
74043;BMP280;62384;53.600;10.040;2023-09-08T15:46:18;78930.63;;;29.47
74043;BMP280;62384;53.600;10.040;2023-09-08T15:48:43;78933.22;;;29.45
74043;BMP280;62384;53.600;10.040;2023-09-08T15:51:09;78918.88;;;29.35
74043;BMP280;62384;53.600;10.040;2023-09-08T15:53:35;78933.22;;;29.45
74043;BMP280;62384;53.600;10.040;2023-09-08T15:56:00;78924.84;;;29.42
74043;BMP280;62384;53.600;10.040;2023-09-08T15:58:26;78936.78;;;29.31
74043;BMP280;62384;53.600;10.040;2023-09-08T16:00:51;78888.47;;;29.23
74043;BMP280;62384;53.600;10.040;2023-09-08T16:03:17;78899.22;;;29.37
74043;BMP280;62384;53.600;10.040;2023-09-08T16:05:43;78938.28;;;29.47
74043;BMP280;62384;53.600;10.040;2023-09-08T16:08:08;78897.53;;;29.19
74043;BMP280;62384;53.600;10.040;2023-09-08T16:10:33;78906.44;;;29.38
74043;BMP280;62384;53.600;10.040;2023-09-08T16:12:59;78883.56;;;29.33
74043;BMP280;62384;53.600;10.040;2023-09-08T16:15:26;78898.91;;;29.32
74043;BMP280;62384;53.600;10.040;2023-09-08T16:17:51;78906.06;;;29.24
74043;BMP280;62384;53.600;10.040;2023-09-08T16:20:18;78833.16;;;28.99
74043;BMP280;62384;53.600;10.040;2023-09-08T16:22:44;78890.31;;;29.17
74043;BMP280;62384;53.600;10.040;2023-09-08T16:25:10;78863.66;;;29.04
74043;BMP280;62384;53.600;10.040;2023-09-08T16:27:40;78851.09;;;29.05
74043;BMP280;62384;53.600;10.040;2023-09-08T16:30:06;78891.97;;;29.00
74043;BMP280;62384;53.600;10.040;2023-09-08T16:32:31;78813.53;;;28.75
74043;BMP280;62384;53.600;10.040;2023-09-08T16:34:56;78798.56;;;28.55
74043;BMP280;62384;53.600;10.040;2023-09-08T16:37:22;78774.47;;;28.55
74043;BMP280;62384;53.600;10.040;2023-09-08T16:39:47;78781.22;;;28.49
74043;BMP280;62384;53.600;10.040;2023-09-08T16:42:12;78767.34;;;28.47
74043;BMP280;62384;53.600;10.040;2023-09-08T16:44:40;78812.59;;;28.60
74043;BMP280;62384;53.600;10.040;2023-09-08T16:47:07;78781.69;;;28.57
74043;BMP280;62384;53.600;10.040;2023-09-08T16:49:33;78765.53;;;28.35
74043;BMP280;62384;53.600;10.040;2023-09-08T16:51:58;78760.56;;;28.43
74043;BMP280;62384;53.600;10.040;2023-09-08T16:54:23;78747.09;;;28.38
74043;BMP280;62384;53.600;10.040;2023-09-08T16:56:49;78731.09;;;28.10
74043;BMP280;62384;53.600;10.040;2023-09-08T16:59:14;78684.59;;;28.03
74043;BMP280;62384;53.600;10.040;2023-09-08T17:01:39;78717.84;;;28.18
74043;BMP280;62384;53.600;10.040;2023-09-08T17:04:05;78680.59;;;28.09
74043;BMP280;62384;53.600;10.040;2023-09-08T17:06:30;78733.09;;;28.07
74043;BMP280;62384;53.600;10.040;2023-09-08T17:08:56;78685.38;;;27.90
74043;BMP280;62384;53.600;10.040;2023-09-08T17:11:21;78666.81;;;27.74
74043;BMP280;62384;53.600;10.040;2023-09-08T17:13:46;78642.06;;;27.55
74043;BMP280;62384;53.600;10.040;2023-09-08T17:16:12;78617.41;;;27.55
74043;BMP280;62384;53.600;10.040;2023-09-08T17:18:37;78592.25;;;27.38
74043;BMP280;62384;53.600;10.040;2023-09-08T17:21:03;78636.41;;;27.52
74043;BMP280;62384;53.600;10.040;2023-09-08T17:23:28;78608.38;;;27.42
74043;BMP280;62384;53.600;10.040;2023-09-08T17:25:53;78595.22;;;27.33
74043;BMP280;62384;53.600;10.040;2023-09-08T17:28:18;78612.41;;;27.20
74043;BMP280;62384;53.600;10.040;2023-09-08T17:30:45;78567.50;;;27.02